New Post, Wisconsin
Current Conditions -  °F | °C
As of 8:53 PM on Saturday 24 Jan 2015 (Local Time) from KHYR Reporting Station
Overcast Overcast  
Wind Chill: 15°   Ceiling: 1100
Heat Index: 26°   Visibility: 10mi
Dew Point: 22°   Wind: 13mph
Humidity: 84%   Direction: 50°NE
Pressure: 29.7"   Gusts: NA
Location:  45.7979°N, 91.3436°W
Report Text: KHYR 250253Z AUTO 05011KT 10SM OVC011 M03/M06 A2970 RMK AO2 SLP073 T10331056 51027
Loading
Personal Weather Stations






























Interactive Weather Map New forecast layout! Learn more

10-Day Weather Forecast

Advertisements
Track Severe Weather on mobile